createdAt,value
2019-02-14T00:00:34.999Z,7.02
2019-02-14T00:03:06.107Z,7.01
2019-02-14T00:05:35.635Z,7.01
2019-02-14T00:08:05.013Z,7.00
2019-02-14T00:10:34.371Z,7.00
2019-02-14T00:13:03.720Z,6.99
2019-02-14T00:15:33.162Z,6.98
2019-02-14T00:18:02.551Z,6.98
2019-02-14T00:20:31.903Z,6.97
2019-02-14T00:23:01.241Z,6.96
2019-02-14T00:25:30.614Z,6.96
2019-02-14T00:27:59.954Z,6.94
2019-02-14T00:30:29.321Z,6.94
2019-02-14T00:32:58.659Z,6.92
2019-02-14T00:35:28.005Z,6.91
2019-02-14T00:37:59.359Z,6.90
2019-02-14T00:40:28.723Z,6.87
2019-02-14T00:42:58.044Z,6.86
2019-02-14T00:45:27.409Z,6.83
2019-02-14T00:47:56.746Z,6.81
2019-02-14T00:50:26.200Z,6.79
2019-02-14T00:53:00.744Z,6.78
2019-02-14T00:55:30.093Z,6.78
2019-02-14T00:57:59.404Z,6.78
2019-02-14T01:00:28.758Z,6.77
2019-02-14T01:02:58.132Z,6.77
2019-02-14T01:05:33.316Z,6.77
2019-02-14T01:07:58.571Z,6.77
2019-02-14T01:10:27.924Z,6.77
2019-02-14T01:12:58.248Z,6.76
2019-02-14T01:15:27.709Z,6.77
2019-02-14T01:17:57.075Z,6.77
2019-02-14T01:20:26.435Z,6.75
2019-02-14T01:22:55.790Z,6.75
2019-02-14T01:25:25.852Z,6.75
2019-02-14T01:27:55.169Z,6.75
2019-02-14T01:30:24.501Z,6.74
2019-02-14T01:32:53.934Z,6.73
2019-02-14T01:35:23.250Z,6.71
2019-02-14T01:37:52.649Z,6.71
2019-02-14T01:40:21.987Z,6.70
2019-02-14T01:42:51.333Z,6.68
2019-02-14T01:45:20.870Z,6.67
2019-02-14T01:47:50.214Z,6.65
2019-02-14T01:50:19.536Z,6.64
2019-02-14T01:52:48.891Z,6.61
2019-02-14T01:55:18.249Z,6.58
2019-02-14T01:57:47.611Z,6.56
2019-02-14T02:00:18.035Z,6.52
2019-02-14T02:02:47.360Z,6.50
2019-02-14T02:05:16.724Z,6.49
2019-02-14T02:07:46.087Z,6.48
2019-02-14T02:10:15.456Z,6.47
2019-02-14T02:12:44.868Z,6.45
2019-02-14T02:15:14.782Z,6.44
2019-02-14T02:17:44.158Z,6.43
2019-02-14T02:20:13.507Z,6.43
2019-02-14T02:22:42.891Z,6.43
2019-02-14T02:25:12.483Z,6.40
2019-02-14T02:27:41.856Z,6.38
2019-02-14T02:30:12.993Z,6.37
2019-02-14T02:32:42.329Z,6.36
2019-02-14T02:35:11.764Z,6.32
2019-02-14T02:37:41.119Z,6.31
2019-02-14T02:40:10.499Z,6.29
2019-02-14T02:42:39.866Z,6.26
2019-02-14T02:45:11.011Z,6.25
2019-02-14T02:47:40.365Z,6.24
2019-02-14T02:50:11.471Z,6.23
2019-02-14T02:52:41.405Z,6.22
2019-02-14T02:55:10.868Z,6.21
2019-02-14T02:57:41.217Z,6.22
2019-02-14T03:00:13.750Z,6.23
2019-02-14T03:02:43.123Z,6.23
2019-02-14T03:05:13.553Z,6.23
2019-02-14T03:07:42.861Z,6.24
2019-02-14T03:10:12.855Z,6.23
2019-02-14T03:12:42.215Z,6.23
2019-02-14T03:15:12.486Z,6.23
2019-02-14T03:17:41.856Z,6.21
2019-02-14T03:20:11.713Z,6.21
2019-02-14T03:22:41.051Z,6.20
2019-02-14T03:25:13.154Z,6.19
2019-02-14T03:27:42.475Z,6.16
2019-02-14T03:30:12.746Z,6.13
2019-02-14T03:32:42.092Z,6.12
2019-02-14T03:35:11.468Z,6.10
2019-02-14T03:37:40.811Z,6.11
2019-02-14T03:40:10.946Z,6.12
2019-02-14T03:42:40.291Z,6.12
2019-02-14T03:45:13.460Z,6.12
2019-02-14T03:47:42.804Z,6.11
2019-02-14T03:50:12.218Z,6.11
2019-02-14T03:52:41.663Z,6.11
2019-02-14T03:55:11.050Z,6.12
2019-02-14T03:57:40.437Z,6.12
2019-02-14T04:00:12.321Z,6.10
2019-02-14T04:02:41.695Z,6.10
2019-02-14T04:05:11.102Z,6.08
2019-02-14T04:07:40.449Z,6.07
2019-02-14T04:10:11.241Z,6.05
2019-02-14T04:12:40.610Z,6.03
2019-02-14T04:15:11.900Z,6.02
2019-02-14T04:17:41.263Z,6.00
2019-02-14T04:20:10.866Z,5.99
2019-02-14T04:22:40.220Z,5.98
2019-02-14T04:25:10.003Z,5.95
2019-02-14T04:27:39.360Z,5.94
2019-02-14T04:30:09.799Z,5.94
2019-02-14T04:32:39.180Z,5.92
2019-02-14T04:35:08.819Z,5.91
2019-02-14T04:37:38.250Z,5.91
2019-02-14T04:40:10.351Z,5.91
2019-02-14T04:42:39.758Z,5.90
2019-02-14T04:45:09.150Z,5.91
2019-02-14T04:47:38.507Z,5.90
2019-02-14T04:50:08.796Z,5.91
2019-02-14T04:52:38.179Z,5.91
2019-02-14T04:55:08.821Z,5.94
2019-02-14T04:57:39.192Z,5.96
2019-02-14T05:00:09.585Z,5.98
2019-02-14T05:02:42.053Z,5.99
2019-02-14T05:05:11.386Z,5.98
2019-02-14T05:07:40.726Z,5.96
2019-02-14T05:10:10.460Z,5.95
2019-02-14T05:12:39.898Z,5.92
2019-02-14T05:15:09.865Z,5.90
2019-02-14T05:17:39.242Z,5.88
2019-02-14T05:20:09.676Z,5.86
2019-02-14T05:22:39.012Z,5.84
2019-02-14T05:25:08.867Z,5.82
2019-02-14T05:27:38.199Z,5.81
2019-02-14T05:30:08.798Z,5.79
2019-02-14T05:32:38.119Z,5.79
2019-02-14T05:35:07.671Z,5.76
2019-02-14T05:37:37.048Z,5.73
2019-02-14T05:40:07.396Z,5.73
2019-02-14T05:42:51.786Z,5.72
2019-02-14T05:45:21.106Z,5.70
2019-02-14T05:47:50.488Z,5.69
2019-02-14T05:50:19.724Z,5.68
2019-02-14T05:52:49.056Z,5.66
2019-02-14T05:55:18.412Z,5.66
2019-02-14T05:57:47.742Z,5.64
2019-02-14T06:00:17.814Z,5.61
2019-02-14T06:02:47.161Z,5.60
2019-02-14T06:05:16.512Z,5.58
2019-02-14T06:07:45.846Z,5.54
2019-02-14T06:10:15.195Z,5.53
2019-02-14T06:12:44.564Z,5.51
2019-02-14T06:15:13.916Z,5.49
2019-02-14T06:17:50.558Z,5.50
2019-02-14T06:20:19.907Z,5.50
2019-02-14T06:22:49.271Z,5.50
2019-02-14T06:25:18.621Z,5.50
2019-02-14T06:27:47.944Z,5.53
2019-02-14T06:30:17.290Z,5.54
2019-02-14T06:32:46.645Z,5.54
2019-02-14T06:35:16.023Z,5.56
2019-02-14T06:37:45.353Z,5.57
2019-02-14T06:40:14.821Z,5.58
2019-02-14T06:42:44.133Z,5.57
2019-02-14T06:45:15.513Z,5.58
2019-02-14T06:47:44.852Z,5.58
2019-02-14T06:50:14.214Z,5.58
2019-02-14T06:52:43.564Z,5.57
2019-02-14T06:55:13.926Z,5.55
2019-02-14T06:57:43.264Z,5.57
2019-02-14T07:00:14.568Z,5.58
2019-02-14T07:02:44.922Z,5.60
2019-02-14T07:05:14.268Z,5.63
2019-02-14T07:07:43.618Z,5.68
2019-02-14T07:10:12.971Z,5.73
2019-02-14T07:12:42.319Z,5.76
2019-02-14T07:15:12.001Z,5.81
2019-02-14T07:17:41.352Z,5.85
2019-02-14T07:20:12.285Z,5.90
2019-02-14T07:22:41.650Z,5.93
2019-02-14T07:25:11.222Z,5.96
2019-02-14T07:27:40.570Z,5.99
2019-02-14T07:30:13.240Z,6.01
2019-02-14T07:32:42.604Z,6.04
2019-02-14T07:35:12.024Z,6.07
2019-02-14T07:37:41.355Z,6.08
2019-02-14T07:40:19.695Z,6.11
2019-02-14T07:42:49.723Z,6.12
2019-02-14T07:45:19.085Z,6.14
2019-02-14T07:47:48.443Z,6.18
2019-02-14T07:50:18.774Z,6.20
2019-02-14T07:52:48.134Z,6.22
2019-02-14T07:55:17.578Z,6.24
2019-02-14T07:57:46.995Z,6.26
2019-02-14T08:00:16.535Z,6.28
2019-02-14T08:02:45.907Z,6.28
2019-02-14T08:05:16.271Z,6.30
2019-02-14T08:07:45.611Z,6.31
2019-02-14T08:10:15.566Z,6.32
2019-02-14T08:12:45.971Z,6.33
2019-02-14T08:15:15.297Z,6.34
2019-02-14T08:17:44.810Z,6.34
2019-02-14T08:20:14.409Z,6.36
2019-02-14T08:22:43.829Z,6.38
2019-02-14T08:25:13.435Z,6.39
2019-02-14T08:27:42.781Z,6.39
2019-02-14T08:30:15.014Z,6.40
2019-02-14T08:32:44.376Z,6.42
2019-02-14T08:35:14.750Z,6.42
2019-02-14T08:37:45.956Z,6.43
2019-02-14T08:40:17.935Z,6.44
2019-02-14T08:42:47.341Z,6.46
2019-02-14T08:45:16.678Z,6.49
2019-02-14T08:47:46.047Z,6.51
2019-02-14T08:50:15.370Z,6.52
2019-02-14T08:52:45.010Z,6.53
2019-02-14T08:55:14.414Z,6.54
2019-02-14T08:57:43.749Z,6.57
2019-02-14T09:00:13.857Z,6.59
2019-02-14T09:02:43.206Z,6.60
2019-02-14T09:05:13.379Z,6.63
2019-02-14T09:07:42.724Z,6.66
2019-02-14T09:10:12.965Z,6.69
2019-02-14T09:12:45.236Z,6.70
2019-02-14T09:15:14.606Z,6.72
2019-02-14T09:17:44.234Z,6.74
2019-02-14T09:20:15.251Z,6.77
2019-02-14T09:22:44.652Z,6.79
2019-02-14T09:25:14.001Z,6.82
2019-02-14T09:27:43.363Z,6.85
2019-02-14T09:30:12.800Z,6.87
2019-02-14T09:32:42.226Z,6.90
2019-02-14T09:35:11.690Z,6.94
2019-02-14T09:37:41.058Z,6.95
2019-02-14T09:40:11.360Z,6.99
2019-02-14T09:42:41.198Z,7.01
2019-02-14T09:45:11.295Z,7.03
2019-02-14T09:47:40.672Z,7.07
2019-02-14T09:50:10.931Z,7.09
2019-02-14T09:52:40.616Z,7.12
2019-02-14T09:55:10.571Z,7.14
2019-02-14T09:57:39.968Z,7.18
2019-02-14T10:00:12.209Z,7.22
2019-02-14T10:02:41.590Z,7.26
2019-02-14T10:05:11.462Z,7.28
2019-02-14T10:07:40.817Z,7.31
2019-02-14T10:10:12.876Z,7.34
2019-02-14T10:12:42.249Z,7.37
2019-02-14T10:15:11.634Z,7.40
2019-02-14T10:17:40.980Z,7.42
2019-02-14T10:20:12.536Z,7.47
2019-02-14T10:22:42.043Z,7.50
2019-02-14T10:25:11.689Z,7.53
2019-02-14T10:27:41.067Z,7.55
2019-02-14T10:30:16.043Z,7.57
2019-02-14T10:32:45.412Z,7.62
2019-02-14T10:35:14.778Z,7.65
2019-02-14T10:37:44.149Z,7.68
2019-02-14T10:40:14.138Z,7.72
2019-02-14T10:42:43.505Z,7.75
2019-02-14T10:45:15.708Z,7.78
2019-02-14T10:47:45.057Z,7.80
2019-02-14T10:50:14.594Z,7.84
2019-02-14T10:53:02.233Z,7.87
2019-02-14T10:55:31.588Z,7.88
2019-02-14T10:58:00.938Z,7.93
2019-02-14T11:00:30.770Z,7.97
2019-02-14T11:03:00.133Z,7.99
2019-02-14T11:05:29.517Z,8.02
2019-02-14T11:07:59.072Z,8.04
2019-02-14T11:10:28.420Z,8.07
2019-02-14T11:12:57.862Z,8.11
2019-02-14T11:15:29.367Z,8.12
2019-02-14T11:17:58.680Z,8.15
2019-02-14T11:20:28.063Z,8.19
2019-02-14T11:22:57.441Z,8.23
2019-02-14T11:25:29.537Z,8.26
2019-02-14T11:27:58.867Z,8.30
2019-02-14T11:30:28.249Z,8.36
2019-02-14T11:32:57.589Z,8.44
2019-02-14T11:35:26.929Z,8.48
2019-02-14T11:37:56.287Z,8.53
2019-02-14T11:40:25.652Z,8.58
2019-02-14T11:42:55.045Z,8.64
2019-02-14T11:45:25.060Z,8.69
2019-02-14T11:47:54.473Z,8.75
2019-02-14T11:50:23.876Z,8.83
2019-02-14T11:52:53.218Z,8.91
2019-02-14T11:55:24.662Z,8.97
2019-02-14T11:57:54.089Z,9.03
2019-02-14T12:00:24.725Z,9.12
2019-02-14T12:02:56.031Z,9.18
2019-02-14T12:05:25.192Z,9.27
2019-02-14T12:07:54.527Z,9.33
2019-02-14T12:10:23.901Z,9.40
2019-02-14T12:12:53.267Z,9.46
2019-02-14T12:15:23.390Z,9.53
2019-02-14T12:17:52.929Z,9.62
2019-02-14T12:20:22.292Z,9.70
2019-02-14T12:22:51.671Z,9.77
2019-02-14T12:25:21.247Z,9.84
2019-02-14T12:27:50.611Z,9.91
2019-02-14T12:30:19.940Z,9.97
2019-02-14T12:32:49.304Z,10.02
2019-02-14T12:35:18.745Z,10.09
2019-02-14T12:37:48.097Z,10.16
2019-02-14T12:40:17.451Z,10.24
2019-02-14T12:42:46.868Z,10.31
2019-02-14T12:45:21.568Z,10.38
2019-02-14T12:47:48.747Z,10.45
2019-02-14T12:50:18.144Z,10.50
2019-02-14T12:52:47.501Z,10.54
2019-02-14T12:55:16.860Z,10.58
2019-02-14T12:57:46.212Z,10.64
2019-02-14T13:00:17.733Z,10.70
2019-02-14T13:02:47.071Z,10.76
2019-02-14T13:05:16.397Z,10.84
2019-02-14T13:07:45.764Z,10.90
2019-02-14T13:10:15.468Z,10.97
2019-02-14T13:12:44.838Z,11.05
2019-02-14T13:15:16.190Z,11.12
2019-02-14T13:17:45.555Z,11.20
2019-02-14T13:20:14.904Z,11.29
2019-02-14T13:22:59.482Z,11.38
2019-02-14T13:25:28.874Z,11.46
2019-02-14T13:27:58.240Z,11.54
2019-02-14T13:30:27.607Z,11.60
2019-02-14T13:32:56.968Z,11.67
2019-02-14T13:35:26.292Z,11.73
2019-02-14T13:37:55.650Z,11.79
2019-02-14T13:40:24.984Z,11.85
2019-02-14T13:42:54.372Z,11.96
2019-02-14T13:45:24.125Z,12.06
2019-02-14T13:47:53.499Z,12.16
2019-02-14T13:50:22.829Z,12.16
2019-02-14T13:52:52.192Z,12.21
2019-02-14T13:55:21.581Z,12.28
2019-02-14T13:57:50.925Z,12.36
2019-02-14T14:00:25.003Z,12.41
2019-02-14T14:02:54.361Z,12.48
2019-02-14T14:05:23.716Z,12.58
2019-02-14T14:07:53.128Z,12.58
2019-02-14T14:10:22.504Z,12.77
2019-02-14T14:12:51.833Z,12.83
2019-02-14T14:15:27.282Z,12.83
2019-02-14T14:17:56.626Z,12.85
2019-02-14T14:20:25.985Z,12.87
2019-02-14T14:22:55.355Z,12.91
2019-02-14T14:25:24.734Z,12.93
2019-02-14T14:27:54.111Z,13.05
2019-02-14T14:30:23.568Z,13.05
2019-02-14T14:32:52.905Z,13.11
2019-02-14T14:35:22.271Z,13.18
2019-02-14T14:37:51.637Z,13.21
2019-02-14T14:40:21.028Z,13.28
2019-02-14T14:43:05.030Z,13.36
2019-02-14T14:46:08.808Z,13.39
2019-02-14T14:49:03.517Z,13.39
2019-02-14T14:51:32.887Z,13.44
2019-02-14T14:54:02.240Z,13.47
2019-02-14T14:56:31.646Z,13.55
2019-02-14T14:59:01.035Z,13.55
2019-02-14T15:01:30.329Z,13.63
2019-02-14T15:03:59.739Z,13.65
2019-02-14T15:06:29.120Z,13.61
2019-02-14T15:08:58.496Z,13.67
2019-02-14T15:11:27.863Z,13.67
2019-02-14T15:13:57.232Z,13.69
2019-02-14T15:16:26.612Z,13.76
2019-02-14T15:18:55.961Z,13.83
2019-02-14T15:21:27.325Z,13.83
2019-02-14T15:23:56.664Z,13.86
2019-02-14T15:26:26.078Z,13.87
2019-02-14T15:28:55.828Z,13.91
2019-02-14T15:31:25.178Z,13.90
2019-02-14T15:33:54.550Z,13.91
2019-02-14T15:36:27.557Z,13.95
2019-02-14T15:38:55.074Z,13.98
2019-02-14T15:41:24.450Z,14.02
2019-02-14T15:44:02.891Z,14.02
2019-02-14T15:46:32.245Z,14.05
2019-02-14T15:49:01.619Z,14.06
2019-02-14T15:51:30.959Z,14.10
2019-02-14T15:54:00.301Z,14.12
2019-02-14T15:56:31.483Z,14.10
2019-02-14T15:59:01.098Z,14.16
2019-02-14T16:01:30.485Z,14.18
2019-02-14T16:03:59.885Z,14.16
2019-02-14T16:06:30.358Z,14.16
2019-02-14T16:08:59.777Z,14.20
2019-02-14T16:11:29.140Z,14.17
2019-02-14T16:13:58.765Z,14.04
2019-02-14T16:16:28.100Z,14.04
2019-02-14T16:18:57.464Z,14.05
2019-02-14T16:21:27.784Z,14.01
2019-02-14T16:23:57.899Z,13.95
2019-02-14T16:26:27.305Z,13.85
2019-02-14T16:28:56.652Z,13.66
2019-02-14T16:31:26.064Z,13.66
2019-02-14T16:33:55.425Z,13.56
2019-02-14T16:36:24.781Z,13.49
2019-02-14T16:38:54.155Z,13.27
2019-02-14T16:41:23.538Z,13.27
2019-02-14T16:43:52.876Z,13.19
2019-02-14T16:46:22.266Z,13.05
2019-02-14T16:48:51.653Z,12.97
2019-02-14T16:51:21.003Z,12.78
2019-02-14T16:53:50.372Z,12.57
2019-02-14T16:56:19.838Z,12.41
2019-02-14T16:58:49.197Z,12.19
2019-02-14T17:01:18.546Z,11.91
2019-02-14T17:03:47.926Z,11.91
2019-02-14T17:06:17.279Z,11.56
2019-02-14T17:08:46.703Z,11.56
2019-02-14T17:11:16.137Z,11.45
2019-02-14T17:13:45.503Z,11.26
2019-02-14T17:16:14.897Z,11.17
2019-02-14T17:18:44.232Z,10.92
2019-02-14T17:21:13.578Z,10.92
2019-02-14T17:23:43.008Z,10.83
2019-02-14T17:26:12.404Z,10.70
2019-02-14T17:28:41.796Z,10.57
2019-02-14T17:31:11.124Z,10.48
2019-02-14T17:33:40.504Z,10.28
2019-02-14T17:36:09.918Z,10.28
2019-02-14T17:38:39.275Z,10.18
2019-02-14T17:41:08.631Z,10.10
2019-02-14T17:43:38.027Z,10.01
2019-02-14T17:46:07.413Z,9.94
2019-02-14T17:48:36.767Z,9.88
2019-02-14T17:51:06.340Z,9.80
2019-02-14T17:53:35.854Z,9.72
2019-02-14T17:56:05.196Z,9.66
2019-02-14T17:58:34.590Z,9.58
2019-02-14T18:01:04.052Z,9.52
2019-02-14T18:03:33.387Z,9.45
2019-02-14T18:06:02.772Z,9.38
2019-02-14T18:08:32.093Z,9.33
2019-02-14T18:11:01.460Z,9.28
2019-02-14T18:13:30.787Z,9.22
2019-02-14T18:16:00.171Z,9.16
2019-02-14T18:18:29.547Z,9.11
2019-02-14T18:20:58.948Z,9.06
2019-02-14T18:23:28.343Z,8.99
2019-02-14T18:25:57.712Z,8.94
2019-02-14T18:28:27.091Z,8.89
2019-02-14T18:30:56.519Z,8.84
2019-02-14T18:33:25.877Z,8.79
2019-02-14T18:35:55.214Z,8.76
2019-02-14T18:38:24.585Z,8.71
2019-02-14T18:40:53.907Z,8.66
2019-02-14T18:43:23.230Z,8.62
2019-02-14T18:45:52.592Z,8.57
2019-02-14T18:48:21.925Z,8.53
2019-02-14T18:50:51.377Z,8.49
2019-02-14T18:53:20.832Z,8.45
2019-02-14T18:55:50.240Z,8.42
2019-02-14T18:58:26.366Z,8.38
2019-02-14T19:00:50.790Z,8.35
2019-02-14T19:03:20.144Z,8.30
2019-02-14T19:05:49.479Z,8.28
2019-02-14T19:08:18.829Z,8.23
2019-02-14T19:10:48.204Z,8.21
2019-02-14T19:13:18.855Z,8.17
2019-02-14T19:15:48.446Z,8.13
2019-02-14T19:18:17.800Z,8.11
2019-02-14T19:20:47.176Z,8.07
2019-02-14T19:23:23.960Z,8.04
2019-02-14T19:25:47.601Z,8.02
2019-02-14T19:28:16.981Z,7.99
2019-02-14T19:30:46.358Z,7.96
2019-02-14T19:33:15.675Z,7.93
2019-02-14T19:35:45.050Z,7.91
2019-02-14T19:38:14.368Z,7.88
2019-02-14T19:40:43.715Z,7.86
2019-02-14T19:43:13.053Z,7.84
2019-02-14T19:45:42.387Z,7.82
2019-02-14T19:48:11.747Z,7.79
2019-02-14T19:50:41.105Z,7.76
2019-02-14T19:53:10.478Z,7.73
2019-02-14T19:55:39.842Z,7.69
2019-02-14T19:58:09.201Z,7.68
2019-02-14T20:00:38.536Z,7.65
2019-02-14T20:03:07.932Z,7.62
2019-02-14T20:05:37.282Z,7.60
2019-02-14T20:08:06.685Z,7.59
2019-02-14T20:10:36.041Z,7.56
2019-02-14T20:13:05.385Z,7.53
2019-02-14T20:15:37.583Z,7.51
2019-02-14T20:18:06.948Z,7.49
2019-02-14T20:20:36.297Z,7.47
2019-02-14T20:23:05.707Z,7.44
2019-02-14T20:25:35.051Z,7.43
2019-02-14T20:28:04.455Z,7.40
2019-02-14T20:30:33.781Z,7.38
2019-02-14T20:33:05.066Z,7.35
2019-02-14T20:35:34.176Z,7.32
2019-02-14T20:38:03.528Z,7.30
2019-02-14T20:40:32.863Z,7.29
2019-02-14T20:43:02.235Z,7.27
2019-02-14T20:45:31.709Z,7.25
2019-02-14T20:48:01.062Z,7.22
2019-02-14T20:50:30.369Z,7.21
2019-02-14T20:52:59.742Z,7.18
2019-02-14T20:55:29.092Z,7.18
2019-02-14T20:57:58.476Z,7.16
2019-02-14T21:00:33.904Z,7.14
2019-02-14T21:03:03.289Z,7.13
2019-02-14T21:05:32.618Z,7.12
2019-02-14T21:08:01.991Z,7.11
2019-02-14T21:10:32.091Z,7.09
2019-02-14T21:13:01.442Z,7.08
2019-02-14T21:15:30.808Z,7.06
2019-02-14T21:18:00.178Z,7.05
2019-02-14T21:20:29.562Z,7.04
2019-02-14T21:22:58.971Z,7.04
2019-02-14T21:25:28.317Z,7.02
2019-02-14T21:27:57.704Z,7.01
2019-02-14T21:30:27.068Z,7.00
2019-02-14T21:32:56.493Z,7.00
2019-02-14T21:35:25.807Z,6.99
2019-02-14T21:37:55.166Z,6.98
2019-02-14T21:40:24.619Z,6.98
2019-02-14T21:42:54.228Z,6.97
2019-02-14T21:45:23.669Z,6.95
2019-02-14T21:47:53.073Z,6.95
2019-02-14T21:50:22.595Z,6.93
2019-02-14T21:52:52.207Z,6.92
2019-02-14T21:55:21.750Z,6.92
2019-02-14T21:57:51.234Z,6.91
2019-02-14T22:00:21.015Z,6.90
2019-02-14T22:02:50.496Z,6.89
2019-02-14T22:05:24.427Z,6.87
2019-02-14T22:07:51.366Z,6.88
2019-02-14T22:10:20.782Z,6.86
2019-02-14T22:12:50.131Z,6.85
2019-02-14T22:15:19.641Z,6.86
2019-02-14T22:17:49.011Z,6.86
2019-02-14T22:20:19.543Z,6.83
2019-02-14T22:22:50.611Z,6.83
2019-02-14T22:25:21.015Z,6.81
2019-02-14T22:27:50.347Z,6.80
2019-02-14T22:30:19.810Z,6.80
2019-02-14T22:32:49.265Z,6.78
2019-02-14T22:35:18.673Z,6.77
2019-02-14T22:37:48.413Z,6.77
2019-02-14T22:40:17.900Z,6.75
2019-02-14T22:42:48.326Z,6.73
2019-02-14T22:45:17.773Z,6.71
2019-02-14T22:47:47.219Z,6.69
2019-02-14T22:50:16.627Z,6.68
2019-02-14T22:52:45.972Z,6.65
2019-02-14T22:55:15.632Z,6.64
2019-02-14T22:57:45.056Z,6.63
2019-02-14T23:00:32.011Z,6.63
2019-02-14T23:03:03.722Z,6.60
2019-02-14T23:05:42.633Z,6.59
2019-02-14T23:08:13.118Z,6.57
2019-02-14T23:10:46.079Z,6.56
2019-02-14T23:13:17.170Z,6.54
2019-02-14T23:15:46.850Z,6.53
2019-02-14T23:18:16.197Z,6.51
2019-02-14T23:20:45.514Z,6.51
2019-02-14T23:23:14.854Z,6.48
2019-02-14T23:25:48.427Z,6.47
2019-02-14T23:28:17.772Z,6.46
2019-02-14T23:30:47.847Z,6.44
2019-02-14T23:33:17.157Z,6.43
2019-02-14T23:35:46.483Z,6.43
2019-02-14T23:38:15.862Z,6.42
2019-02-14T23:40:45.215Z,6.42
2019-02-14T23:43:14.553Z,6.41
2019-02-14T23:45:43.886Z,6.42
2019-02-14T23:48:13.220Z,6.43
2019-02-14T23:50:42.590Z,6.43
2019-02-14T23:53:11.910Z,6.44
2019-02-14T23:55:41.225Z,6.46
2019-02-14T23:58:10.581Z,6.47
